createdAt,value
2022-08-14T00:01:55.337Z,10.32
2022-08-14T00:04:35.280Z,9.75
2022-08-14T00:06:52.809Z,11.80
2022-08-14T00:09:24.461Z,11.63
2022-08-14T00:11:57.605Z,9.00
2022-08-14T00:14:30.891Z,14.75
2022-08-14T00:17:02.252Z,16.82
2022-08-14T00:19:33.336Z,16.48
2022-08-14T00:22:04.840Z,11.97
2022-08-14T00:24:36.799Z,11.93
2022-08-14T00:27:08.052Z,9.78
2022-08-14T00:29:40.640Z,10.85
2022-08-14T00:32:52.831Z,11.48
2022-08-14T00:34:46.728Z,15.05
2022-08-14T00:37:16.891Z,10.68
2022-08-14T00:39:48.549Z,12.33
2022-08-14T00:42:54.995Z,11.30
2022-08-14T00:44:56.408Z,17.52
2022-08-14T00:47:27.660Z,12.23
2022-08-14T00:49:59.036Z,11.48
2022-08-14T00:52:30.587Z,9.33
2022-08-14T00:55:03.963Z,11.48
2022-08-14T00:57:38.284Z,14.13
2022-08-14T01:00:34.419Z,10.23
2022-08-14T01:02:47.367Z,15.63
2022-08-14T01:05:20.978Z,11.10
2022-08-14T01:07:56.967Z,10.90
2022-08-14T01:10:38.427Z,13.30
2022-08-14T01:13:04.272Z,10.25
2022-08-14T01:15:58.341Z,10.08
2022-08-14T01:18:09.225Z,7.70
2022-08-14T01:20:42.007Z,10.53
2022-08-14T01:23:16.072Z,7.92
2022-08-14T01:25:49.233Z,13.10
2022-08-14T01:28:46.470Z,9.20
2022-08-14T01:30:58.056Z,11.22
2022-08-14T01:33:44.650Z,11.33
2022-08-14T01:36:07.334Z,11.10
2022-08-14T01:38:37.525Z,10.23
2022-08-14T01:41:11.917Z,12.90
2022-08-14T01:43:56.549Z,12.63
2022-08-14T01:46:24.536Z,9.60
2022-08-14T01:48:55.517Z,12.55
2022-08-14T01:51:29.752Z,10.63
2022-08-14T01:54:05.079Z,10.55
2022-08-14T01:56:39.644Z,9.45
2022-08-14T01:59:18.101Z,11.00
2022-08-14T02:01:51.289Z,11.03
2022-08-14T02:04:40.774Z,9.73
2022-08-14T02:06:54.100Z,14.23
2022-08-14T02:09:24.558Z,14.78
2022-08-14T02:11:57.931Z,12.25
2022-08-14T02:14:31.347Z,10.08
2022-08-14T02:17:02.311Z,11.60
2022-08-14T02:19:36.087Z,11.50
2022-08-14T02:22:07.859Z,11.75
2022-08-14T02:24:45.198Z,10.10
2022-08-14T02:28:23.309Z,10.75
2022-08-14T02:30:00.124Z,13.22
2022-08-14T02:32:30.010Z,13.03
2022-08-14T02:34:51.051Z,9.83
2022-08-14T02:37:23.310Z,8.30
2022-08-14T02:39:55.711Z,10.95
2022-08-14T02:42:37.340Z,10.25
2022-08-14T02:44:58.882Z,12.43
2022-08-14T02:47:31.339Z,10.13
2022-08-14T02:50:02.288Z,9.88
2022-08-14T02:52:57.275Z,11.18
2022-08-14T02:55:07.866Z,11.33
2022-08-14T02:57:39.990Z,8.83
2022-08-14T03:00:18.676Z,9.88
2022-08-14T03:02:56.224Z,8.53
2022-08-14T03:05:19.343Z,10.38
2022-08-14T03:07:51.898Z,8.38
2022-08-14T03:10:26.504Z,9.05
2022-08-14T03:12:55.898Z,8.55
2022-08-14T03:15:26.835Z,9.30
2022-08-14T03:17:58.485Z,10.55
2022-08-14T03:20:31.502Z,8.70
2022-08-14T03:23:04.445Z,8.00
2022-08-14T03:25:37.556Z,7.60
2022-08-14T03:28:14.818Z,11.08
2022-08-14T03:30:44.612Z,7.42
2022-08-14T03:33:16.721Z,8.18
2022-08-14T03:36:05.664Z,10.20
2022-08-14T03:39:12.572Z,7.60
2022-08-14T03:40:53.081Z,10.72
2022-08-14T03:43:25.278Z,8.43
2022-08-14T03:45:57.402Z,8.05
2022-08-14T03:48:31.457Z,8.00
2022-08-14T03:51:03.682Z,12.68
2022-08-14T03:53:36.002Z,8.90
2022-08-14T03:56:08.755Z,9.88
2022-08-14T03:58:44.034Z,10.58
2022-08-14T04:01:17.774Z,8.50
2022-08-14T04:03:50.283Z,7.87
2022-08-14T04:06:28.372Z,13.25
2022-08-14T04:08:58.030Z,8.18
2022-08-14T04:11:27.954Z,9.40
2022-08-14T04:13:59.063Z,10.50
2022-08-14T04:16:31.907Z,16.90
2022-08-14T04:19:05.164Z,15.60
2022-08-14T04:21:39.720Z,11.15
2022-08-14T04:24:08.351Z,8.15
2022-08-14T04:26:42.427Z,10.35
2022-08-14T04:29:16.384Z,10.20
2022-08-14T04:32:59.927Z,9.88
2022-08-14T04:34:27.435Z,7.58
2022-08-14T04:36:55.005Z,8.90
2022-08-14T04:39:27.783Z,9.95
2022-08-14T04:42:01.155Z,9.00
2022-08-14T04:44:37.092Z,9.28
2022-08-14T04:47:06.149Z,8.50
2022-08-14T04:49:46.482Z,50.80
2022-08-14T04:52:15.475Z,12.07
2022-08-14T04:54:42.536Z,9.43
2022-08-14T04:57:14.584Z,13.05
2022-08-14T04:59:45.308Z,10.48
2022-08-14T05:02:17.637Z,9.65
2022-08-14T05:04:58.565Z,8.75
2022-08-14T05:07:46.454Z,9.58
2022-08-14T05:09:56.719Z,9.18
2022-08-14T05:13:13.386Z,8.05
2022-08-14T05:15:00.777Z,8.78
2022-08-14T05:17:43.979Z,5.83
2022-08-14T05:21:04.449Z,8.53
2022-08-14T05:22:43.498Z,10.23
2022-08-14T05:25:14.910Z,6.20
2022-08-14T05:27:45.751Z,8.80
2022-08-14T05:30:16.955Z,9.43
2022-08-14T05:32:48.892Z,7.97
2022-08-14T05:35:21.815Z,6.97
2022-08-14T05:37:52.699Z,8.68
2022-08-14T05:40:24.280Z,11.15
2022-08-14T05:42:58.458Z,6.42
2022-08-14T05:45:29.296Z,7.53
2022-08-14T05:48:01.697Z,10.60
2022-08-14T05:50:33.164Z,6.83
2022-08-14T05:53:04.493Z,8.80
2022-08-14T05:55:36.797Z,4.55
2022-08-14T05:58:10.856Z,7.17
2022-08-14T06:00:44.087Z,6.10
2022-08-14T06:03:18.483Z,5.80
2022-08-14T06:05:51.958Z,6.15
2022-08-14T06:08:36.284Z,6.65
2022-08-14T06:11:01.823Z,11.80
2022-08-14T06:13:44.922Z,9.83
2022-08-14T06:16:09.579Z,9.18
2022-08-14T06:18:41.234Z,7.87
2022-08-14T06:21:17.478Z,11.12
2022-08-14T06:23:49.251Z,10.98
2022-08-14T06:26:22.074Z,9.95
2022-08-14T06:28:53.401Z,9.73
2022-08-14T06:31:27.696Z,11.65
2022-08-14T06:35:03.796Z,12.00
2022-08-14T06:36:30.694Z,11.55
2022-08-14T06:39:01.427Z,11.75
2022-08-14T06:41:35.955Z,8.68
2022-08-14T06:44:07.308Z,9.73
2022-08-14T06:46:39.615Z,10.23
2022-08-14T06:49:11.368Z,9.23
2022-08-14T06:51:45.151Z,13.85
2022-08-14T06:54:16.350Z,10.20
2022-08-14T06:56:54.317Z,18.25
2022-08-14T06:59:20.995Z,9.98
2022-08-14T07:01:56.535Z,8.53
2022-08-14T07:04:28.255Z,6.67
2022-08-14T07:07:00.701Z,10.53
2022-08-14T07:09:44.259Z,9.80
2022-08-14T07:12:04.029Z,13.30
2022-08-14T07:14:35.054Z,13.95
2022-08-14T07:17:07.258Z,9.48
2022-08-14T07:19:38.178Z,10.10
2022-08-14T07:22:17.708Z,9.35
2022-08-14T07:24:42.620Z,8.95
2022-08-14T07:27:13.641Z,9.98
2022-08-14T07:29:45.441Z,8.95
2022-08-14T07:32:22.125Z,8.00
2022-08-14T07:34:48.922Z,8.90
2022-08-14T07:37:20.075Z,7.70
2022-08-14T07:39:51.168Z,6.10
2022-08-14T07:42:23.996Z,7.10
2022-08-14T07:44:55.262Z,13.35
2022-08-14T07:47:27.304Z,8.43
2022-08-14T07:50:00.593Z,8.58
2022-08-14T07:52:33.443Z,10.00
2022-08-14T07:55:04.364Z,8.58
2022-08-14T07:57:35.575Z,7.03
2022-08-14T08:00:11.735Z,8.75
2022-08-14T08:02:48.006Z,8.68
2022-08-14T08:05:19.665Z,11.43
2022-08-14T08:07:51.487Z,9.50
2022-08-14T08:10:46.672Z,10.78
2022-08-14T08:13:01.356Z,6.90
2022-08-14T08:15:35.147Z,8.83
2022-08-14T08:18:08.890Z,9.10
2022-08-14T08:20:43.562Z,10.35
2022-08-14T08:23:20.612Z,8.90
2022-08-14T08:25:51.738Z,12.03
2022-08-14T08:28:27.502Z,7.20
2022-08-14T08:31:02.434Z,9.97
2022-08-14T08:33:37.811Z,9.50
2022-08-14T08:36:18.528Z,8.48
2022-08-14T08:39:16.676Z,8.13
2022-08-14T08:41:19.843Z,12.03
2022-08-14T08:43:51.118Z,8.15
2022-08-14T08:46:24.291Z,6.83
2022-08-14T08:51:31.104Z,8.68
2022-08-14T08:54:05.011Z,12.88
2022-08-14T08:56:40.196Z,8.68
2022-08-14T08:59:14.828Z,8.88
2022-08-14T09:01:59.751Z,9.90
2022-08-14T09:04:33.190Z,8.08
2022-08-14T09:07:10.088Z,13.00
2022-08-14T09:09:54.442Z,8.93
2022-08-14T09:12:14.012Z,8.45
2022-08-14T09:14:43.911Z,6.17
2022-08-14T09:17:15.438Z,7.65
2022-08-14T09:19:46.868Z,10.32
2022-08-14T09:22:34.893Z,10.63
2022-08-14T09:24:52.192Z,10.32
2022-08-14T09:27:24.732Z,9.23
2022-08-14T09:29:56.125Z,9.43
2022-08-14T09:32:59.601Z,8.15
2022-08-14T09:35:08.472Z,10.95
2022-08-14T09:37:45.368Z,12.23
2022-08-14T09:40:20.830Z,11.20
2022-08-14T09:42:55.317Z,13.03
2022-08-14T09:45:30.246Z,7.37
2022-08-14T09:48:01.580Z,9.05
2022-08-14T09:50:34.961Z,8.80
2022-08-14T09:53:10.982Z,7.00
2022-08-14T09:55:43.172Z,9.73
2022-08-14T09:58:19.753Z,8.23
2022-08-14T10:00:50.876Z,10.13
2022-08-14T10:03:25.559Z,11.88
2022-08-14T10:06:01.761Z,9.23
2022-08-14T10:08:36.300Z,7.50
2022-08-14T10:11:11.662Z,8.73
2022-08-14T10:13:52.915Z,11.97
2022-08-14T10:16:25.672Z,9.13
2022-08-14T10:18:52.635Z,11.88
2022-08-14T10:21:23.631Z,8.20
2022-08-14T10:23:54.654Z,10.85
2022-08-14T10:26:28.170Z,9.90
2022-08-14T10:29:18.423Z,9.50
2022-08-14T10:31:43.326Z,8.70
2022-08-14T10:34:13.412Z,10.25
2022-08-14T10:36:48.135Z,10.30
2022-08-14T10:39:20.502Z,11.43
2022-08-14T10:41:53.949Z,13.48
2022-08-14T10:44:29.574Z,11.93
2022-08-14T10:47:40.777Z,13.77
2022-08-14T10:49:35.427Z,14.38
2022-08-14T10:52:09.665Z,14.65
2022-08-14T10:54:43.089Z,13.43
2022-08-14T10:57:17.565Z,10.98
2022-08-14T10:59:51.258Z,10.98
2022-08-14T11:02:44.952Z,11.48
2022-08-14T11:05:04.750Z,13.35
2022-08-14T11:07:33.424Z,14.68
2022-08-14T11:10:10.866Z,13.18
2022-08-14T11:12:46.367Z,13.90
2022-08-14T11:15:19.565Z,15.10
2022-08-14T11:17:52.052Z,12.10
2022-08-14T11:20:25.323Z,12.30
2022-08-14T11:23:08.516Z,11.90
2022-08-14T11:25:44.399Z,11.80
2022-08-14T11:28:19.112Z,14.63
2022-08-14T11:30:54.179Z,10.32
2022-08-14T11:35:59.618Z,21.35
2022-08-14T11:38:30.324Z,14.03
2022-08-14T11:41:01.318Z,16.52
2022-08-14T11:43:31.959Z,13.58
2022-08-14T11:46:06.485Z,17.87
2022-08-14T11:49:02.642Z,17.80
2022-08-14T11:51:12.841Z,12.75
2022-08-14T11:53:45.871Z,12.30
2022-08-14T11:56:17.551Z,14.35
2022-08-14T11:58:51.012Z,13.83
2022-08-14T12:01:26.154Z,14.65
2022-08-14T12:04:00.993Z,13.70
2022-08-14T12:06:39.734Z,15.90
2022-08-14T12:09:08.834Z,13.28
2022-08-14T12:11:44.105Z,15.35
2022-08-14T12:14:34.828Z,17.12
2022-08-14T12:16:49.781Z,16.00
2022-08-14T12:19:24.079Z,15.65
2022-08-14T12:21:55.238Z,14.30
2022-08-14T12:24:35.811Z,16.00
2022-08-14T12:27:01.316Z,14.33
2022-08-14T12:29:32.563Z,12.75
2022-08-14T12:32:09.117Z,20.27
2022-08-14T12:34:45.197Z,18.67
2022-08-14T12:37:14.713Z,15.08
2022-08-14T12:39:48.561Z,16.70
2022-08-14T12:42:27.206Z,14.93
2022-08-14T12:44:52.796Z,15.32
2022-08-14T12:47:27.548Z,19.82
2022-08-14T12:49:58.559Z,14.90
2022-08-14T12:52:41.664Z,14.03
2022-08-14T12:55:09.329Z,16.75
2022-08-14T12:57:43.921Z,19.45
2022-08-14T13:00:22.979Z,19.62
2022-08-14T13:02:56.413Z,17.90
2022-08-14T13:05:30.692Z,15.60
2022-08-14T13:08:04.912Z,16.85
2022-08-14T13:10:46.048Z,18.37
2022-08-14T13:13:15.253Z,16.20
2022-08-14T13:15:46.702Z,21.68
2022-08-14T13:18:22.011Z,15.05
2022-08-14T13:21:01.758Z,15.83
2022-08-14T13:23:36.057Z,16.25
2022-08-14T13:26:04.803Z,13.55
2022-08-14T13:29:00.596Z,16.25
2022-08-14T13:31:13.148Z,17.25
2022-08-14T13:33:45.472Z,14.85
2022-08-14T13:36:24.602Z,17.55
2022-08-14T13:38:53.677Z,18.00
2022-08-14T13:41:31.780Z,17.35
2022-08-14T13:44:01.017Z,14.38
2022-08-14T13:46:34.090Z,17.85
2022-08-14T13:49:05.069Z,18.35
2022-08-14T13:51:40.412Z,13.93
2022-08-14T13:54:14.047Z,14.28
2022-08-14T13:56:47.952Z,16.17
2022-08-14T13:59:20.126Z,15.55
2022-08-14T14:01:56.020Z,19.75
2022-08-14T14:04:41.720Z,14.05
2022-08-14T14:07:20.281Z,15.20
2022-08-14T14:09:56.919Z,13.30
2022-08-14T14:12:37.338Z,15.40
2022-08-14T14:15:05.568Z,16.37
2022-08-14T14:17:38.932Z,16.45
2022-08-14T14:20:34.382Z,15.03
2022-08-14T14:23:02.816Z,14.45
2022-08-14T14:25:22.479Z,17.10
2022-08-14T14:27:54.893Z,13.13
2022-08-14T14:30:52.223Z,14.10
2022-08-14T14:33:05.181Z,15.70
2022-08-14T14:35:53.824Z,12.73
2022-08-14T14:38:17.077Z,14.30
2022-08-14T14:40:52.703Z,18.52
2022-08-14T14:43:30.267Z,14.78
2022-08-14T14:46:06.045Z,11.10
2022-08-14T14:48:34.776Z,15.80
2022-08-14T14:51:06.643Z,14.05
2022-08-14T14:53:41.208Z,16.85
2022-08-14T14:56:47.220Z,18.70
2022-08-14T14:58:49.195Z,16.20
2022-08-14T15:01:23.107Z,12.75
2022-08-14T15:03:56.378Z,14.07
2022-08-14T15:06:30.548Z,13.88
2022-08-14T15:09:04.761Z,14.05
2022-08-14T15:11:36.088Z,11.68
2022-08-14T15:14:56.161Z,20.43
2022-08-14T15:16:40.250Z,14.60
2022-08-14T15:19:21.683Z,15.65
2022-08-14T15:21:46.774Z,14.53
2022-08-14T15:24:24.376Z,16.37
2022-08-14T15:26:51.579Z,14.15
2022-08-14T15:29:22.767Z,14.05
2022-08-14T15:31:55.211Z,15.10
2022-08-14T15:34:43.038Z,17.17
2022-08-14T15:37:01.234Z,18.52
2022-08-14T15:39:34.115Z,17.50
2022-08-14T15:42:14.390Z,14.13
2022-08-14T15:44:50.772Z,15.45
2022-08-14T15:47:23.305Z,16.30
2022-08-14T15:49:53.407Z,17.70
2022-08-14T15:52:34.389Z,18.12
2022-08-14T15:54:59.268Z,20.85
2022-08-14T15:57:32.485Z,17.15
2022-08-14T16:00:04.319Z,17.48
2022-08-14T16:02:36.682Z,18.32
2022-08-14T16:05:09.607Z,17.37
2022-08-14T16:07:42.503Z,18.25
2022-08-14T16:10:28.926Z,14.60
2022-08-14T16:12:48.108Z,18.40
2022-08-14T16:15:19.128Z,20.55
2022-08-14T16:17:51.449Z,23.05
2022-08-14T16:20:42.283Z,19.00
2022-08-14T16:23:00.602Z,21.10
2022-08-14T16:25:36.199Z,22.23
2022-08-14T16:28:08.450Z,18.75
2022-08-14T16:30:43.467Z,18.57
2022-08-14T16:33:28.067Z,19.07
2022-08-14T16:35:55.648Z,22.62
2022-08-14T16:38:45.965Z,18.52
2022-08-14T16:41:03.271Z,19.42
2022-08-14T16:43:35.826Z,17.95
2022-08-14T16:46:08.112Z,17.30
2022-08-14T16:48:54.844Z,16.93
2022-08-14T16:51:13.877Z,19.27
2022-08-14T16:53:48.566Z,18.48
2022-08-14T16:56:24.183Z,19.57
2022-08-14T16:59:01.921Z,19.13
2022-08-14T17:01:31.443Z,19.20
2022-08-14T17:04:06.427Z,17.55
2022-08-14T17:06:42.891Z,18.52
2022-08-14T17:09:15.485Z,21.33
2022-08-14T17:11:51.970Z,18.90
2022-08-14T17:14:22.685Z,18.10
2022-08-14T17:16:59.821Z,22.85
2022-08-14T17:19:31.441Z,17.77
2022-08-14T17:22:07.221Z,21.30
2022-08-14T17:24:57.483Z,23.70
2022-08-14T17:27:18.448Z,20.27
2022-08-14T17:32:22.075Z,19.90
2022-08-14T17:34:53.147Z,17.62
2022-08-14T17:37:26.577Z,20.40
2022-08-14T17:40:00.237Z,19.12
2022-08-14T17:42:34.065Z,17.77
2022-08-14T17:45:05.097Z,19.73
2022-08-14T17:47:35.850Z,21.05
2022-08-14T17:51:00.564Z,18.67
2022-08-14T17:52:48.543Z,21.12
2022-08-14T17:56:02.351Z,27.50
2022-08-14T17:57:51.261Z,23.95
2022-08-14T18:00:23.378Z,19.42
2022-08-14T18:02:55.230Z,20.20
2022-08-14T18:06:06.486Z,23.95
2022-08-14T18:08:32.425Z,23.83
2022-08-14T18:10:55.134Z,26.10
2022-08-14T18:13:18.019Z,17.80
2022-08-14T18:15:52.322Z,25.43
2022-08-14T18:18:24.597Z,23.70
2022-08-14T18:21:41.765Z,18.73
2022-08-14T18:23:30.254Z,15.88
2022-08-14T18:26:04.904Z,17.85
2022-08-14T18:28:51.003Z,16.45
2022-08-14T18:31:15.671Z,14.55
2022-08-14T18:33:50.370Z,13.43
2022-08-14T18:36:47.236Z,13.25
2022-08-14T18:39:00.548Z,18.02
2022-08-14T18:41:37.455Z,11.75
2022-08-14T18:44:04.572Z,12.13
2022-08-14T18:47:00.864Z,15.50
2022-08-14T18:49:13.849Z,15.48
2022-08-14T18:51:47.001Z,16.77
2022-08-14T18:54:20.835Z,15.00
2022-08-14T18:56:54.220Z,17.57
2022-08-14T18:59:27.678Z,18.02
2022-08-14T19:02:02.292Z,17.65
2022-08-14T19:04:36.780Z,19.12
2022-08-14T19:07:10.083Z,14.95
2022-08-14T19:09:50.634Z,14.98
2022-08-14T19:12:27.931Z,14.68
2022-08-14T19:14:51.707Z,14.83
2022-08-14T19:17:25.787Z,15.95
2022-08-14T19:19:59.877Z,16.57
2022-08-14T19:22:33.239Z,13.13
2022-08-14T19:25:04.896Z,13.53
2022-08-14T19:27:37.447Z,13.78
2022-08-14T19:30:11.167Z,15.30
2022-08-14T19:32:43.823Z,15.18
2022-08-14T19:35:18.710Z,13.65
2022-08-14T19:37:53.875Z,13.03
2022-08-14T19:40:27.368Z,11.88
2022-08-14T19:42:59.598Z,13.13
2022-08-14T19:45:33.638Z,13.58
2022-08-14T19:48:06.000Z,14.75
2022-08-14T19:50:41.144Z,12.60
2022-08-14T19:53:17.087Z,14.40
2022-08-14T19:55:46.651Z,12.88
2022-08-14T19:58:17.791Z,13.98
2022-08-14T20:00:53.596Z,15.10
2022-08-14T20:03:25.819Z,15.32
2022-08-14T20:06:01.780Z,14.87
2022-08-14T20:09:05.999Z,14.50
2022-08-14T20:11:20.944Z,16.45
2022-08-14T20:13:40.835Z,17.80
2022-08-14T20:16:12.946Z,14.43
2022-08-14T20:18:49.602Z,18.77
2022-08-14T20:21:17.974Z,15.65
2022-08-14T20:23:49.958Z,14.05
2022-08-14T20:26:31.622Z,14.73
2022-08-14T20:28:55.645Z,13.55
2022-08-14T20:31:37.194Z,10.43
2022-08-14T20:34:03.395Z,11.80
2022-08-14T20:36:35.185Z,15.90
2022-08-14T20:39:09.155Z,13.43
2022-08-14T20:41:51.511Z,13.53
2022-08-14T20:44:21.289Z,15.28
2022-08-14T20:46:56.327Z,15.30
2022-08-14T20:49:30.437Z,13.88
2022-08-14T20:52:05.103Z,13.22
2022-08-14T20:54:50.498Z,10.28
2022-08-14T20:57:14.060Z,14.25
2022-08-14T20:59:46.794Z,12.82
2022-08-14T21:02:28.488Z,13.03
2022-08-14T21:04:54.934Z,12.53
2022-08-14T21:07:36.293Z,13.60
2022-08-14T21:10:06.050Z,11.70
2022-08-14T21:12:36.040Z,10.93
2022-08-14T21:15:10.118Z,15.13
2022-08-14T21:17:43.153Z,12.80
2022-08-14T21:20:25.953Z,13.03
2022-08-14T21:22:48.018Z,15.95
2022-08-14T21:25:20.832Z,12.15
2022-08-14T21:27:57.371Z,11.73
2022-08-14T21:30:51.180Z,13.95
2022-08-14T21:32:57.968Z,14.68
2022-08-14T21:35:29.885Z,11.45
2022-08-14T21:38:03.846Z,15.70
2022-08-14T21:40:41.953Z,13.90
2022-08-14T21:43:18.378Z,12.30
2022-08-14T21:45:53.338Z,16.23
2022-08-14T21:48:22.149Z,12.80
2022-08-14T21:51:02.040Z,13.43
2022-08-14T21:53:31.085Z,12.53
2022-08-14T21:56:03.253Z,15.83
2022-08-14T21:58:53.010Z,14.53
2022-08-14T22:01:10.555Z,12.75
2022-08-14T22:03:46.872Z,14.05
2022-08-14T22:06:19.478Z,13.70
2022-08-14T22:08:47.272Z,12.73
2022-08-14T22:11:19.577Z,14.20
2022-08-14T22:13:53.467Z,13.30
2022-08-14T22:17:01.663Z,12.60
2022-08-14T22:18:59.424Z,13.15
2022-08-14T22:21:32.634Z,14.47
2022-08-14T22:24:10.718Z,14.07
2022-08-14T22:26:40.759Z,14.90
2022-08-14T22:29:10.708Z,15.63
2022-08-14T22:31:43.908Z,14.13
2022-08-14T22:34:16.834Z,13.22
2022-08-14T22:36:49.823Z,13.22
2022-08-14T22:40:17.430Z,13.68
2022-08-14T22:41:56.347Z,12.75
2022-08-14T22:44:30.321Z,17.70
2022-08-14T22:47:02.280Z,16.65
2022-08-14T22:50:30.931Z,15.48
2022-08-14T22:52:33.145Z,16.15
2022-08-14T22:54:52.961Z,13.55
2022-08-14T22:57:15.463Z,15.65
2022-08-14T22:59:46.913Z,15.08
2022-08-14T23:02:21.464Z,16.50
2022-08-14T23:04:55.789Z,12.33
2022-08-14T23:08:56.163Z,16.10
2022-08-14T23:10:33.099Z,15.60
2022-08-14T23:12:35.989Z,16.70
2022-08-14T23:15:07.946Z,14.83
2022-08-14T23:17:40.214Z,15.18
2022-08-14T23:20:18.541Z,13.60
2022-08-14T23:22:48.611Z,16.52
2022-08-14T23:25:58.328Z,15.83
2022-08-14T23:28:04.748Z,15.05
2022-08-14T23:30:34.064Z,17.75
2022-08-14T23:32:59.045Z,13.60
2022-08-14T23:35:34.580Z,15.83
2022-08-14T23:38:06.914Z,15.63
2022-08-14T23:40:40.756Z,15.75
2022-08-14T23:43:16.193Z,13.45
2022-08-14T23:45:49.691Z,14.13
2022-08-14T23:48:24.839Z,14.75
2022-08-14T23:50:55.951Z,11.50
2022-08-14T23:53:47.755Z,14.25
2022-08-14T23:56:05.314Z,14.55
2022-08-14T23:58:37.190Z,18.15
